createdAt,value
2022-08-11T00:01:09.434Z,102004.31
2022-08-11T00:03:43.281Z,102002.19
2022-08-11T00:06:10.427Z,102010.84
2022-08-11T00:08:36.661Z,101996.34
2022-08-11T00:11:04.559Z,101978.91
2022-08-11T00:13:31.817Z,101989.47
2022-08-11T00:15:58.065Z,101978.09
2022-08-11T00:18:24.335Z,102001.50
2022-08-11T00:20:50.569Z,102018.22
2022-08-11T00:23:19.720Z,102004.72
2022-08-11T00:25:47.094Z,101997.81
2022-08-11T00:28:32.441Z,102006.50
2022-08-11T00:30:59.652Z,102005.00
2022-08-11T00:33:44.106Z,101987.31
2022-08-11T00:36:13.179Z,101984.06
2022-08-11T00:38:40.018Z,101990.94
2022-08-11T00:41:09.859Z,101997.50
2022-08-11T00:43:39.524Z,101984.31
2022-08-11T00:46:09.153Z,101991.66
2022-08-11T00:48:41.082Z,101996.41
2022-08-11T00:51:15.456Z,102000.00
2022-08-11T00:53:46.459Z,101997.16
2022-08-11T00:56:31.298Z,101995.53
2022-08-11T00:59:34.151Z,102003.66
2022-08-11T01:02:11.471Z,102016.03
2022-08-11T01:04:56.821Z,102006.31
2022-08-11T01:08:01.417Z,102012.63
2022-08-11T01:10:24.315Z,102019.44
2022-08-11T01:12:53.650Z,102049.13
2022-08-11T01:15:19.836Z,102058.91
2022-08-11T01:18:04.984Z,102042.06
2022-08-11T01:20:47.732Z,102034.09
2022-08-11T01:23:34.126Z,102050.97
2022-08-11T01:26:15.449Z,102057.50
2022-08-11T01:28:53.614Z,102050.41
2022-08-11T01:31:38.892Z,102055.31
2022-08-11T01:34:23.628Z,102052.44
2022-08-11T01:36:56.654Z,102037.47
2022-08-11T01:39:26.269Z,102030.59
2022-08-11T01:41:55.513Z,102015.00
2022-08-11T01:44:35.058Z,102006.56
2022-08-11T01:47:20.004Z,102011.25
2022-08-11T01:50:09.373Z,102025.22
2022-08-11T01:52:42.913Z,102014.09
2022-08-11T01:55:09.215Z,102014.06
2022-08-11T01:57:56.526Z,102026.66
2022-08-11T02:00:24.868Z,102058.66
2022-08-11T02:02:54.209Z,102057.19
2022-08-11T02:05:39.233Z,102059.81
2022-08-11T02:08:11.648Z,102050.06
2022-08-11T02:10:55.292Z,102049.22
2022-08-11T02:13:41.191Z,102067.13
2022-08-11T02:16:21.324Z,102093.28
2022-08-11T02:18:49.402Z,102114.28
2022-08-11T02:21:16.536Z,102106.94
2022-08-11T02:24:05.206Z,102113.03
2022-08-11T02:26:40.493Z,102134.53
2022-08-11T02:29:15.923Z,102101.00
2022-08-11T02:32:11.076Z,102076.03
2022-08-11T02:34:59.407Z,102062.25
2022-08-11T02:37:32.198Z,102042.03
2022-08-11T02:39:58.394Z,102027.25
2022-08-11T02:42:43.700Z,102017.94
2022-08-11T02:45:10.322Z,101988.75
2022-08-11T02:47:41.227Z,101987.81
2022-08-11T02:50:20.948Z,101996.41
2022-08-11T02:53:02.744Z,101995.66
2022-08-11T02:55:47.973Z,101985.78
2022-08-11T02:58:33.201Z,101995.78
2022-08-11T03:01:03.453Z,102013.69
2022-08-11T03:03:30.582Z,102002.69
2022-08-11T03:06:15.510Z,101992.34
2022-08-11T03:09:00.237Z,101993.66
2022-08-11T03:11:26.442Z,102008.66
2022-08-11T03:13:55.498Z,101991.09
2022-08-11T03:16:26.362Z,101975.34
2022-08-11T03:19:03.761Z,101912.19
2022-08-11T03:22:01.965Z,101953.03
2022-08-11T03:24:19.360Z,101967.94
2022-08-11T03:27:04.432Z,101973.31
2022-08-11T03:29:39.635Z,101985.81
2022-08-11T03:32:07.050Z,101960.13
2022-08-11T03:34:33.368Z,101957.31
2022-08-11T03:37:17.004Z,101933.56
2022-08-11T03:40:10.715Z,101932.94
2022-08-11T03:42:39.860Z,101927.38
2022-08-11T03:45:15.347Z,101935.50
2022-08-11T03:48:00.163Z,101932.56
2022-08-11T03:50:34.355Z,101930.97
2022-08-11T03:53:19.447Z,101949.94
2022-08-11T03:55:53.036Z,101966.88
2022-08-11T03:58:25.245Z,101992.78
2022-08-11T04:01:03.422Z,102060.50
2022-08-11T04:03:36.657Z,102064.75
2022-08-11T04:06:08.752Z,102028.50
2022-08-11T04:08:53.652Z,102009.72
2022-08-11T04:11:38.473Z,101995.88
2022-08-11T04:14:10.594Z,101968.72
2022-08-11T04:16:44.408Z,101940.31
2022-08-11T04:19:21.417Z,101926.69
2022-08-11T04:22:06.457Z,101931.16
2022-08-11T04:24:39.822Z,101931.31
2022-08-11T04:27:19.347Z,101927.63
2022-08-11T04:30:04.980Z,101926.09
2022-08-11T04:32:36.348Z,101933.69
2022-08-11T04:35:11.868Z,101940.22
2022-08-11T04:37:43.284Z,101954.50
2022-08-11T04:40:17.919Z,101965.09
2022-08-11T04:43:06.205Z,101965.81
2022-08-11T04:45:38.270Z,101957.75
2022-08-11T04:48:16.730Z,101955.91
2022-08-11T04:51:08.708Z,101959.16
2022-08-11T04:53:52.447Z,101978.94
2022-08-11T04:56:20.767Z,101981.66
2022-08-11T04:59:05.841Z,101963.53
2022-08-11T05:01:37.293Z,101995.41
2022-08-11T05:04:16.401Z,102009.00
2022-08-11T05:06:48.417Z,101996.56
2022-08-11T05:09:26.010Z,101946.66
2022-08-11T05:12:01.846Z,101926.78
2022-08-11T05:14:57.930Z,101918.72
2022-08-11T05:17:27.625Z,101924.94
2022-08-11T05:19:53.866Z,101975.34
2022-08-11T05:22:20.105Z,102033.69
2022-08-11T05:24:50.518Z,102074.97
2022-08-11T05:27:16.759Z,102120.94
2022-08-11T05:29:44.721Z,102156.94
2022-08-11T05:32:11.637Z,102178.19
2022-08-11T05:34:44.746Z,102172.13
2022-08-11T05:37:26.712Z,102165.19
2022-08-11T05:39:54.136Z,102169.41
2022-08-11T05:42:30.274Z,102153.31
2022-08-11T05:45:15.436Z,102143.94
2022-08-11T05:47:42.108Z,102058.13
2022-08-11T05:50:09.475Z,101887.25
2022-08-11T05:52:41.831Z,101798.31
2022-08-11T05:55:08.385Z,101674.22
2022-08-11T05:57:48.767Z,101555.19
2022-08-11T06:00:18.020Z,101433.41
2022-08-11T06:02:44.429Z,101370.88
2022-08-11T06:05:11.190Z,101471.38
2022-08-11T06:07:47.216Z,101388.41
2022-08-11T06:10:25.120Z,101250.50
2022-08-11T06:12:52.642Z,101295.59
2022-08-11T06:15:18.892Z,101195.34
2022-08-11T06:17:45.351Z,101250.03
2022-08-11T06:20:11.730Z,101288.25
2022-08-11T06:22:38.360Z,101264.53
2022-08-11T06:25:05.448Z,101264.63
2022-08-11T06:27:32.078Z,101312.31
2022-08-11T06:29:58.326Z,101419.16
2022-08-11T06:32:28.736Z,101416.75
2022-08-11T06:34:58.093Z,101387.53
2022-08-11T06:37:34.490Z,101420.44
2022-08-11T06:40:05.389Z,101513.66
2022-08-11T06:42:46.269Z,101346.16
2022-08-11T06:45:27.649Z,101217.91
2022-08-11T06:47:53.885Z,101130.63
2022-08-11T06:50:20.436Z,101118.13
2022-08-11T06:52:46.832Z,101095.88
2022-08-11T06:55:56.924Z,101098.53
2022-08-11T06:58:01.886Z,101124.47
2022-08-11T07:00:28.166Z,101009.34
2022-08-11T07:02:57.020Z,100990.22
2022-08-11T07:05:28.120Z,101093.84
2022-08-11T07:08:34.930Z,101086.28
2022-08-11T07:11:08.798Z,100951.66
2022-08-11T07:13:44.918Z,100878.28
2022-08-11T07:16:14.042Z,100938.75
2022-08-11T07:18:40.466Z,101080.66
2022-08-11T07:22:00.457Z,101032.50
2022-08-11T07:24:13.826Z,100997.66
2022-08-11T07:26:40.749Z,100814.06
2022-08-11T07:29:06.995Z,100838.59
2022-08-11T07:31:41.759Z,100882.44
2022-08-11T07:34:21.435Z,101056.44
2022-08-11T07:36:49.877Z,101178.91
2022-08-11T07:39:22.998Z,100994.47
2022-08-11T07:41:50.732Z,101004.91
2022-08-11T07:44:16.984Z,101044.75
2022-08-11T07:46:43.903Z,101135.19
2022-08-11T07:49:10.138Z,101099.91
2022-08-11T07:51:36.382Z,101040.41
2022-08-11T07:54:07.722Z,101126.38
2022-08-11T07:57:07.280Z,101245.34
2022-08-11T08:00:00.490Z,101018.53
2022-08-11T08:02:15.437Z,100896.28
2022-08-11T08:04:45.390Z,100914.56
2022-08-11T08:07:13.566Z,100753.16
2022-08-11T08:09:39.803Z,100860.16
2022-08-11T08:12:06.395Z,100899.91
2022-08-11T08:14:32.673Z,100879.22
2022-08-11T08:16:59.850Z,100922.69
2022-08-11T08:19:26.094Z,100811.00
2022-08-11T08:21:52.337Z,100720.63
2022-08-11T08:24:18.780Z,100596.16
2022-08-11T08:26:51.409Z,100786.69
2022-08-11T08:29:18.148Z,100745.72
2022-08-11T08:31:44.403Z,100562.88
2022-08-11T08:34:10.660Z,100333.97
2022-08-11T08:36:36.910Z,100209.00
2022-08-11T08:39:03.154Z,100126.09
2022-08-11T08:41:29.746Z,100405.31
2022-08-11T08:44:05.944Z,100529.50
2022-08-11T08:46:44.332Z,100512.44
2022-08-11T08:49:10.743Z,100352.78
2022-08-11T08:51:58.536Z,100502.47
2022-08-11T08:54:36.730Z,100548.31
2022-08-11T08:57:03.452Z,100569.66
2022-08-11T08:59:47.533Z,100393.03
2022-08-11T09:02:16.154Z,100473.59
2022-08-11T09:04:43.867Z,100456.53
2022-08-11T09:07:10.877Z,100406.31
2022-08-11T09:09:42.737Z,100342.56
2022-08-11T09:12:09.615Z,100139.41
2022-08-11T09:14:36.690Z,100288.97
2022-08-11T09:17:02.941Z,100350.66
2022-08-11T09:19:29.198Z,100556.69
2022-08-11T09:21:55.437Z,100440.66
2022-08-11T09:24:26.099Z,100474.38
2022-08-11T09:26:52.819Z,100272.06
2022-08-11T09:29:19.056Z,100156.78
2022-08-11T09:31:45.330Z,100265.00
2022-08-11T09:34:11.578Z,100237.84
2022-08-11T09:36:38.750Z,100250.00
2022-08-11T09:39:05.073Z,100328.75
2022-08-11T09:42:01.813Z,100500.94
2022-08-11T09:44:17.728Z,100461.72
2022-08-11T09:46:45.685Z,100499.41
2022-08-11T09:49:11.931Z,100290.75
2022-08-11T09:51:38.182Z,100121.88
2022-08-11T09:54:07.593Z,100406.97
2022-08-11T09:56:33.870Z,100194.38
2022-08-11T09:59:00.134Z,100102.28
2022-08-11T10:01:28.230Z,100114.56
2022-08-11T10:04:01.176Z,99986.00
2022-08-11T10:06:34.271Z,100107.63
2022-08-11T10:09:01.031Z,99989.72
2022-08-11T10:11:27.266Z,99888.50
2022-08-11T10:14:31.296Z,99839.38
2022-08-11T10:16:40.003Z,99993.31
2022-08-11T10:19:06.263Z,99858.31
2022-08-11T10:21:39.783Z,99839.13
2022-08-11T10:24:06.295Z,99981.66
2022-08-11T10:26:32.577Z,99827.13
2022-08-11T10:29:12.729Z,99736.25
2022-08-11T10:31:52.935Z,99859.09
2022-08-11T10:34:24.280Z,99716.13
2022-08-11T10:36:52.914Z,99950.47
2022-08-11T10:39:20.144Z,99726.88
2022-08-11T10:42:02.082Z,99557.16
2022-08-11T10:44:37.394Z,99618.28
2022-08-11T10:47:04.143Z,99758.84
2022-08-11T10:49:30.418Z,99471.69
2022-08-11T10:51:58.916Z,99570.63
2022-08-11T10:54:25.273Z,99890.31
2022-08-11T10:56:51.510Z,99836.44
2022-08-11T10:59:17.748Z,99558.78
2022-08-11T11:01:44.273Z,99890.34
2022-08-11T11:04:14.952Z,99773.31
2022-08-11T11:06:44.167Z,99864.72
2022-08-11T11:09:17.587Z,99903.81
2022-08-11T11:11:45.300Z,99765.16
2022-08-11T11:14:12.863Z,99825.03
2022-08-11T11:16:39.109Z,99966.84
2022-08-11T11:19:05.382Z,99679.16
2022-08-11T11:21:31.631Z,99992.19
2022-08-11T11:24:08.513Z,99705.00
2022-08-11T11:26:41.070Z,99692.53
2022-08-11T11:29:07.253Z,100044.91
2022-08-11T11:31:52.110Z,100136.63
2022-08-11T11:34:24.456Z,99638.25
2022-08-11T11:36:51.901Z,99747.50
2022-08-11T11:39:19.059Z,100003.94
2022-08-11T11:41:45.314Z,99961.88
2022-08-11T11:44:11.819Z,99589.59
2022-08-11T11:46:38.822Z,99724.75
2022-08-11T11:49:05.565Z,99668.56
2022-08-11T11:51:42.113Z,99905.28
2022-08-11T11:54:08.596Z,99868.47
2022-08-11T11:56:37.785Z,99247.06
2022-08-11T11:59:04.033Z,99699.13
2022-08-11T12:01:30.278Z,99593.56
2022-08-11T12:03:56.531Z,99284.81
2022-08-11T12:06:23.173Z,99283.50
2022-08-11T12:08:50.548Z,99458.41
2022-08-11T12:11:16.782Z,99876.00
2022-08-11T12:13:43.726Z,99581.72
2022-08-11T12:16:33.833Z,99342.06
2022-08-11T12:18:58.118Z,99280.09
2022-08-11T12:21:24.350Z,99534.41
2022-08-11T12:23:50.593Z,99736.31
2022-08-11T12:26:26.969Z,99352.44
2022-08-11T12:28:53.684Z,99793.78
2022-08-11T12:31:19.930Z,99814.94
2022-08-11T12:33:46.190Z,99470.72
2022-08-11T12:36:12.913Z,99581.69
2022-08-11T12:38:39.149Z,99794.28
2022-08-11T12:41:21.425Z,99705.31
2022-08-11T12:43:57.241Z,99507.91
2022-08-11T12:46:24.112Z,99512.75
2022-08-11T12:48:59.879Z,99316.75
2022-08-11T12:51:28.758Z,99888.19
2022-08-11T12:54:02.865Z,99963.63
2022-08-11T12:56:30.926Z,100040.09
2022-08-11T12:58:57.168Z,99913.81
2022-08-11T13:01:23.528Z,99937.09
2022-08-11T13:03:56.456Z,100174.81
2022-08-11T13:06:23.238Z,99922.66
2022-08-11T13:08:49.491Z,100095.97
2022-08-11T13:11:16.017Z,99813.19
2022-08-11T13:13:55.041Z,99859.56
2022-08-11T13:16:27.728Z,100140.25
2022-08-11T13:18:54.041Z,100278.19
2022-08-11T13:21:21.165Z,100361.94
2022-08-11T13:24:01.032Z,100050.81
2022-08-11T13:26:43.363Z,99804.25
2022-08-11T13:29:14.509Z,100189.47
2022-08-11T13:31:40.755Z,100249.38
2022-08-11T13:34:07.007Z,100345.75
2022-08-11T13:36:34.143Z,100496.25
2022-08-11T13:39:00.395Z,100624.59
2022-08-11T13:41:26.774Z,100507.72
2022-08-11T13:43:53.016Z,100525.75
2022-08-11T13:46:19.411Z,100644.97
2022-08-11T13:48:46.143Z,100818.19
2022-08-11T13:51:12.373Z,100697.59
2022-08-11T13:53:38.626Z,100624.59
2022-08-11T13:56:04.914Z,100746.97
2022-08-11T13:58:40.627Z,100771.09
2022-08-11T14:02:03.841Z,100644.72
2022-08-11T14:04:31.245Z,100526.13
2022-08-11T14:06:41.174Z,100378.31
2022-08-11T14:09:08.263Z,100327.97
2022-08-11T14:12:22.362Z,100328.78
2022-08-11T14:14:22.420Z,100562.47
2022-08-11T14:16:48.662Z,100481.44
2022-08-11T14:19:14.911Z,100546.75
2022-08-11T14:21:42.616Z,100452.28
2022-08-11T14:24:09.244Z,100512.91
2022-08-11T14:26:35.488Z,100616.13
2022-08-11T14:29:03.008Z,100830.84
2022-08-11T14:31:29.621Z,100933.28
2022-08-11T14:34:00.441Z,101048.59
2022-08-11T14:36:37.954Z,100943.59
2022-08-11T14:39:06.184Z,100784.16
2022-08-11T14:41:32.429Z,100952.22
2022-08-11T14:44:12.359Z,100904.16
2022-08-11T14:46:40.618Z,100930.69
2022-08-11T14:49:06.865Z,101016.59
2022-08-11T14:51:33.100Z,101135.91
2022-08-11T14:53:59.346Z,101091.41
2022-08-11T14:56:25.585Z,100878.50
2022-08-11T14:58:51.827Z,101011.38
2022-08-11T15:01:18.136Z,101061.66
2022-08-11T15:04:34.032Z,100868.78
2022-08-11T15:06:30.664Z,100847.94
2022-08-11T15:08:56.935Z,101112.72
2022-08-11T15:11:29.347Z,101107.41
2022-08-11T15:13:55.908Z,101111.22
2022-08-11T15:16:22.319Z,101157.63
2022-08-11T15:18:48.581Z,101131.44
2022-08-11T15:21:14.809Z,101167.00
2022-08-11T15:23:41.044Z,101233.75
2022-08-11T15:26:09.007Z,101133.63
2022-08-11T15:28:36.834Z,100967.13
2022-08-11T15:31:03.180Z,101220.00
2022-08-11T15:33:29.425Z,101176.41
2022-08-11T15:35:55.768Z,101091.84
2022-08-11T15:38:22.013Z,101124.72
2022-08-11T15:40:48.245Z,101069.69
2022-08-11T15:43:28.974Z,101086.03
2022-08-11T15:45:56.598Z,101084.53
2022-08-11T15:48:30.974Z,101164.56
2022-08-11T15:50:57.831Z,101134.47
2022-08-11T15:53:25.906Z,101065.31
2022-08-11T15:55:52.163Z,101180.66
2022-08-11T15:58:18.744Z,101217.00
2022-08-11T16:00:45.333Z,101206.16
2022-08-11T16:03:15.514Z,101069.44
2022-08-11T16:05:46.392Z,101055.97
2022-08-11T16:08:15.121Z,101212.22
2022-08-11T16:10:41.491Z,101110.63
2022-08-11T16:13:11.035Z,101074.75
2022-08-11T16:15:38.068Z,100991.69
2022-08-11T16:18:05.185Z,101073.38
2022-08-11T16:20:31.426Z,101161.25
2022-08-11T16:23:02.933Z,101184.28
2022-08-11T16:26:38.023Z,101103.16
2022-08-11T16:28:15.702Z,101083.53
2022-08-11T16:30:42.085Z,101108.34
2022-08-11T16:33:48.151Z,101127.88
2022-08-11T16:35:54.544Z,101135.28
2022-08-11T16:38:20.992Z,101115.91
2022-08-11T16:40:47.230Z,101134.63
2022-08-11T16:43:14.636Z,101302.88
2022-08-11T16:45:41.207Z,101201.72
2022-08-11T16:48:36.415Z,101138.56
2022-08-11T16:50:54.384Z,101144.31
2022-08-11T16:53:20.616Z,101137.53
2022-08-11T16:55:52.498Z,101176.03
2022-08-11T16:58:19.765Z,101245.34
2022-08-11T17:00:46.089Z,101272.00
2022-08-11T17:03:12.506Z,101284.34
2022-08-11T17:05:54.331Z,101287.38
2022-08-11T17:08:24.271Z,101347.34
2022-08-11T17:10:54.809Z,101290.38
2022-08-11T17:13:44.281Z,101296.06
2022-08-11T17:16:11.290Z,101352.88
2022-08-11T17:18:44.568Z,101434.78
2022-08-11T17:21:11.741Z,101363.25
2022-08-11T17:23:38.066Z,101346.47
2022-08-11T17:26:04.823Z,101336.44
2022-08-11T17:28:31.146Z,101386.88
2022-08-11T17:30:57.382Z,101355.00
2022-08-11T17:33:23.632Z,101342.31
2022-08-11T17:35:49.870Z,101402.53
2022-08-11T17:38:16.789Z,101398.34
2022-08-11T17:40:49.466Z,101510.84
2022-08-11T17:43:15.702Z,101439.03
2022-08-11T17:45:42.602Z,101483.25
2022-08-11T17:48:09.042Z,101427.81
2022-08-11T17:50:35.273Z,101449.19
2022-08-11T17:53:01.532Z,101518.66
2022-08-11T17:55:52.512Z,101581.06
2022-08-11T17:58:14.487Z,101576.06
2022-08-11T18:00:40.734Z,101581.09
2022-08-11T18:03:06.999Z,101617.53
2022-08-11T18:05:34.326Z,101574.47
2022-08-11T18:08:05.293Z,101598.88
2022-08-11T18:10:33.086Z,101687.53
2022-08-11T18:13:00.883Z,101777.41
2022-08-11T18:15:27.284Z,101766.31
2022-08-11T18:17:58.266Z,101769.44
2022-08-11T18:20:24.516Z,101734.91
2022-08-11T18:22:50.761Z,101753.09
2022-08-11T18:25:17.543Z,101797.22
2022-08-11T18:27:44.227Z,101731.66
2022-08-11T18:30:10.642Z,101691.19
2022-08-11T18:32:49.639Z,101649.47
2022-08-11T18:35:16.363Z,101666.97
2022-08-11T18:37:43.892Z,101618.81
2022-08-11T18:40:11.853Z,101627.19
2022-08-11T18:42:38.683Z,101634.47
2022-08-11T18:45:06.443Z,101648.13
2022-08-11T18:47:32.677Z,101608.22
2022-08-11T18:50:01.891Z,101578.56
2022-08-11T18:52:30.455Z,101549.38
2022-08-11T18:54:57.153Z,101548.50
2022-08-11T18:57:23.739Z,101492.84
2022-08-11T18:59:50.018Z,101447.38
2022-08-11T19:02:16.259Z,101467.50
2022-08-11T19:04:42.504Z,101501.00
2022-08-11T19:07:08.755Z,101420.75
2022-08-11T19:09:35.539Z,101502.38
2022-08-11T19:12:01.769Z,101421.75
2022-08-11T19:14:28.004Z,101423.13
2022-08-11T19:16:54.286Z,101439.38
2022-08-11T19:19:20.530Z,101292.50
2022-08-11T19:21:46.770Z,101186.94
2022-08-11T19:24:13.011Z,101227.97
2022-08-11T19:26:39.263Z,101217.75
2022-08-11T19:29:05.507Z,101095.63
2022-08-11T19:31:31.761Z,101212.47
2022-08-11T19:34:02.536Z,101114.56
2022-08-11T19:36:36.289Z,101076.84
2022-08-11T19:39:02.543Z,101135.84
2022-08-11T19:41:57.095Z,101093.84
2022-08-11T19:44:16.728Z,101111.34
2022-08-11T19:46:43.081Z,101162.88
2022-08-11T19:49:09.315Z,101151.00
2022-08-11T19:51:35.696Z,101105.28
2022-08-11T19:54:01.993Z,101225.44
2022-08-11T19:56:28.248Z,101292.06
2022-08-11T19:58:54.483Z,101361.06
2022-08-11T20:01:20.845Z,101229.88
2022-08-11T20:03:47.113Z,101211.53
2022-08-11T20:06:13.359Z,101197.63
2022-08-11T20:08:40.088Z,101148.09
2022-08-11T20:11:06.357Z,101191.41
2022-08-11T20:13:32.607Z,101220.72
2022-08-11T20:15:58.845Z,101346.59
2022-08-11T20:18:25.073Z,101318.78
2022-08-11T20:20:53.469Z,101323.38
2022-08-11T20:23:19.775Z,101403.19
2022-08-11T20:25:46.068Z,101457.75
2022-08-11T20:28:12.320Z,101397.38
2022-08-11T20:30:38.556Z,101421.91
2022-08-11T20:33:04.800Z,101504.34
2022-08-11T20:35:31.304Z,101470.03
2022-08-11T20:37:57.548Z,101479.00
2022-08-11T20:40:24.066Z,101411.22
2022-08-11T20:42:50.325Z,101484.28
2022-08-11T20:45:16.562Z,101407.91
2022-08-11T20:47:59.861Z,101379.78
2022-08-11T20:50:27.078Z,101482.78
2022-08-11T20:52:55.006Z,101550.00
2022-08-11T20:55:26.106Z,101595.03
2022-08-11T20:58:07.676Z,101518.63
2022-08-11T21:00:41.531Z,101637.22
2022-08-11T21:03:10.406Z,101598.84
2022-08-11T21:06:10.608Z,101640.81
2022-08-11T21:08:27.033Z,101600.13
2022-08-11T21:10:54.618Z,101547.34
2022-08-11T21:13:27.029Z,101543.47
2022-08-11T21:16:03.018Z,101615.56
2022-08-11T21:18:29.763Z,101665.63
2022-08-11T21:20:56.086Z,101635.81
2022-08-11T21:23:24.375Z,101698.50
2022-08-11T21:26:11.015Z,101690.41
2022-08-11T21:28:38.040Z,101592.78
2022-08-11T21:31:04.360Z,101559.72
2022-08-11T21:33:31.044Z,101560.63
2022-08-11T21:35:57.474Z,101575.84
2022-08-11T21:38:23.726Z,101683.72
2022-08-11T21:40:49.965Z,101684.66
2022-08-11T21:43:16.200Z,101714.13
2022-08-11T21:45:42.433Z,101772.16
2022-08-11T21:48:08.745Z,101796.25
2022-08-11T21:50:34.986Z,101893.59
2022-08-11T21:53:01.349Z,101837.72
2022-08-11T21:55:27.581Z,101787.28
2022-08-11T21:57:54.027Z,101805.00
2022-08-11T22:00:20.275Z,101854.22
2022-08-11T22:02:52.249Z,101884.06
2022-08-11T22:05:19.613Z,101909.75
2022-08-11T22:07:45.853Z,101862.69
2022-08-11T22:10:41.116Z,101842.56
2022-08-11T22:12:58.374Z,101815.00
2022-08-11T22:15:24.624Z,101801.47
2022-08-11T22:17:53.675Z,101790.56
2022-08-11T22:20:23.654Z,101794.47
2022-08-11T22:22:53.097Z,101788.13
2022-08-11T22:25:23.200Z,101766.69
2022-08-11T22:27:49.432Z,101782.34
2022-08-11T22:30:15.679Z,101771.22
2022-08-11T22:32:42.244Z,101773.09
2022-08-11T22:35:08.557Z,101780.31
2022-08-11T22:37:34.789Z,101784.03
2022-08-11T22:40:03.074Z,101779.56
2022-08-11T22:42:33.966Z,101811.56
2022-08-11T22:45:09.784Z,101782.22
2022-08-11T22:47:38.457Z,101775.38
2022-08-11T22:50:07.290Z,101860.00
2022-08-11T22:52:33.534Z,101885.91
2022-08-11T22:54:59.800Z,101841.53
2022-08-11T22:57:26.037Z,101870.84
2022-08-11T22:59:52.278Z,101871.13
2022-08-11T23:02:18.517Z,101832.53
2022-08-11T23:04:44.752Z,101825.94
2022-08-11T23:07:51.566Z,101811.13
2022-08-11T23:10:05.577Z,101804.22
2022-08-11T23:12:32.385Z,101807.13
2022-08-11T23:14:58.633Z,101797.63
2022-08-11T23:17:25.160Z,101793.91
2022-08-11T23:20:06.755Z,101783.38
2022-08-11T23:22:49.445Z,101809.25
2022-08-11T23:25:17.715Z,101798.16
2022-08-11T23:27:44.277Z,101775.16
2022-08-11T23:30:10.774Z,101786.00
2022-08-11T23:32:37.010Z,101802.91
2022-08-11T23:35:38.938Z,101793.13
2022-08-11T23:37:49.557Z,101795.00
2022-08-11T23:40:15.815Z,101797.63
2022-08-11T23:42:42.050Z,101792.88
2022-08-11T23:45:12.566Z,101789.97
2022-08-11T23:47:38.874Z,101799.97
2022-08-11T23:50:17.381Z,101831.91
2022-08-11T23:52:43.638Z,101830.09
2022-08-11T23:55:09.891Z,101792.06
2022-08-11T23:57:36.150Z,101768.56
